Portada
METAR-TAF:

METAR-TAF

Aeroports :

La Argelia

Loja, Equador

latitud: 03-59-45S, longitud: 079-22-19W, altitud: 1236 m

Observació

L'informe es va fer fa 27 minuts, a les 17:00 UTC
Vent 3 kt del Oest/Sud-Oest
Temperatura 30°C
Humitat 38%
Pressió 1017 hPa
Visibilitat 10 km o més
sense núvols per sota de 1500 mi sense presència de cumulonimbus.

METAR: SECA 231700Z 25003KT CAVOK 30/14 Q1017 RMK A3004

Hora: 12:27 (17:27 UTC)


TAF: manca

Observacions i pronòstics meteorològics de més de 4000 aeroports (METAR i TAF).

Les estacions disponibles són els punts grocs i vermells al mapa.

Posi el ratolí al punt desitjat per veure el nom de l'estació.

Feu clic per veure les observacions i els pronòstics meteorològics.

Per canviar el mapa: feu clic els botons verds amb una creu de color negre per apropar; al botó verd amb un guió per allunyar la imatge; o en les fletxes verdes per a mapes adjacents.


METAR-TAF: